Data for 03/17/2015

Time Sea-Level Adjusted Pressure Absolute Pressure Temperature Relative Humidity Dew Point   
(mb) (inHg) (mb) (inHg) (C) (F) (%) (C) (F)
00:05 1026 30.3 855 25.25 -0.2 31.7 76 -3.9 25
00:10 1026 30.3 855 25.25 -0.2 31.6 76 -4 24.8
00:15 1025 30.27 855 25.25 -0.2 31.6 75 -4.1 24.6
00:20 1025 30.27 855 25.25 -0.3 31.5 75 -4.1 24.6
00:25 1025 30.27 855 25.25 -0.3 31.5 76 -4 24.8
00:30 1025 30.27 855 25.25 -0.3 31.4 76 -4.1 24.7
00:35 1025 30.27 855 25.25 -0.3 31.5 75 -4.2 24.4
00:40 1025 30.27 855 25.25 -0.3 31.4 75 -4.2 24.5
00:45 1025 30.27 855 25.25 -0.4 31.3 75 -4.2 24.4
00:50 1025 30.27 855 25.25 -0.4 31.2 76 -4.1 24.5
00:55 1025 30.27 855 25.25 -0.4 31.2 76 -4.1 24.6
01:00 1025 30.27 855 25.25 -0.5 31.2 77 -4.1 24.7
01:05 1026 30.3 855 25.25 -0.6 30.9 78 -3.9 25
01:10 1026 30.3 855 25.25 -0.7 30.7 80 -3.8 25.2
01:15 1026 30.3 855 25.25 -0.8 30.5 81 -3.7 25.3
01:20 1025 30.27 855 25.25 -0.9 30.3 81 -3.7 25.3
01:25 1025 30.27 855 25.25 -0.9 30.3 80 -3.9 25
01:30 1025 30.27 855 25.25 -0.9 30.4 80 -4 24.8
01:35 1025 30.27 855 25.25 -0.9 30.4 79 -4.1 24.6
01:40 1025 30.27 855 25.25 -0.9 30.4 79 -4.1 24.5
01:45 1025 30.27 854 25.22 -0.9 30.5 78 -4.2 24.5
01:50 1025 30.27 854 25.22 -0.9 30.4 79 -4.1 24.5
01:55 1025 30.27 854 25.22 -0.9 30.4 78 -4.2 24.4
02:00 1025 30.27 854 25.22 -0.8 30.5 77 -4.3 24.2
02:05 1025 30.27 854 25.22 -0.8 30.5 77 -4.3 24.2
02:10 1025 30.27 854 25.22 -0.8 30.5 77 -4.4 24.2
02:15 1025 30.27 854 25.22 -0.8 30.5 76 -4.5 23.9
02:20 1025 30.27 854 25.22 -0.8 30.6 76 -4.5 23.9
02:25 1025 30.27 854 25.22 -0.8 30.5 76 -4.5 23.9
02:30 1025 30.27 854 25.22 -0.8 30.5 75 -4.7 23.6
02:35 1024 30.24 854 25.22 -0.8 30.5 75 -4.7 23.6
02:40 1024 30.24 854 25.22 -0.9 30.5 75 -4.7 23.6
02:45 1024 30.24 853 25.19 -0.9 30.4 75 -4.8 23.3
02:50 1024 30.24 853 25.19 -0.8 30.5 75 -4.8 23.4
02:55 1024 30.24 853 25.19 -0.9 30.5 74 -4.9 23.2
03:00 1024 30.24 853 25.19 -0.9 30.5 74 -4.9 23.2
03:05 1024 30.24 853 25.19 -0.9 30.4 75 -4.9 23.3
03:10 1024 30.24 853 25.19 -1 30.3 75 -4.9 23.1
03:15 1024 30.24 853 25.19 -1 30.2 75 -4.9 23.1
03:20 1024 30.24 853 25.19 -1 30.1 75 -4.9 23.1
03:25 1024 30.24 853 25.19 -1.1 30 75 -5 23.1
03:30 1024 30.24 853 25.19 -1.1 30 75 -5 23.1
03:35 1024 30.24 853 25.19 -1.1 30 75 -4.9 23.1
03:40 1024 30.24 853 25.19 -1.1 30.1 75 -5 23
03:45 1024 30.24 853 25.19 -1.1 30 75 -4.9 23.1
03:50 1023 30.21 853 25.19 -1.1 30 76 -4.8 23.3
03:55 1023 30.21 852 25.16 -1.2 29.9 76 -4.8 23.4
04:00 1023 30.21 853 25.19 -1.2 29.8 77 -4.7 23.6
04:05 1024 30.24 853 25.19 -1.2 29.8 77 -4.7 23.5
04:10 1024 30.24 853 25.19 -1.2 29.9 77 -4.7 23.5
04:15 1024 30.24 853 25.19 -1.2 29.9 77 -4.7 23.6
04:20 1023 30.21 853 25.19 -1.1 30 77 -4.7 23.6
04:25 1023 30.21 853 25.19 -1.1 29.9 77 -4.6 23.7
04:30 1024 30.24 853 25.19 -1.2 29.9 77 -4.7 23.5
04:35 1024 30.24 853 25.19 -1.1 30 77 -4.7 23.6
04:40 1024 30.24 853 25.19 -1.1 30 77 -4.7 23.5
04:45 1024 30.24 853 25.19 -1.1 30 77 -4.7 23.6
04:50 1024 30.24 853 25.19 -1.2 29.9 78 -4.6 23.7
04:55 1024 30.24 853 25.19 -1.3 29.7 78 -4.6 23.8
05:00 1023 30.21 853 25.19 -1.3 29.6 79 -4.6 23.7
05:05 1023 30.21 853 25.19 -1.4 29.4 80 -4.5 24
05:10 1023 30.21 853 25.19 -1.5 29.2 81 -4.5 24
05:15 1023 30.21 853 25.19 -1.5 29.3 80 -4.5 23.9
05:20 1023 30.21 853 25.19 -1.5 29.4 79 -4.6 23.7
05:25 1023 30.21 853 25.19 -1.4 29.5 79 -4.6 23.7
05:30 1023 30.21 853 25.19 -1.4 29.4 80 -4.5 23.9
05:35 1023 30.21 853 25.19 -1.5 29.3 80 -4.5 23.9
05:40 1023 30.21 852 25.16 -1.5 29.3 80 -4.4 24
05:45 1023 30.21 852 25.16 -1.7 29 82 -4.4 24.1
05:50 1023 30.21 852 25.16 -1.7 28.9 82 -4.4 24
05:55 1023 30.21 852 25.16 -1.7 28.9 82 -4.4 24
06:00 1023 30.21 852 25.16 -1.7 29 82 -4.4 24.1
06:05 1023 30.21 852 25.16 -1.7 29 82 -4.4 24.1
06:10 1023 30.21 852 25.16 -1.7 29 82 -4.4 24.2
06:15 1023 30.21 852 25.16 -1.7 28.9 82 -4.4 24.1
06:20 1023 30.21 852 25.16 -1.7 28.9 82 -4.4 24.1
06:25 1023 30.21 852 25.16 -1.7 29 82 -4.4 24.1
06:30 1023 30.21 852 25.16 -1.7 28.9 82 -4.3 24.2
06:35 1023 30.21 852 25.16 -1.8 28.8 82 -4.4 24.1
06:40 1023 30.21 852 25.16 -1.8 28.8 83 -4.4 24.1
06:45 1023 30.21 852 25.16 -1.7 29 82 -4.4 24.1
06:50 1023 30.21 852 25.16 -1.6 29.1 82 -4.4 24.1
06:55 1023 30.21 852 25.16 -1.6 29.1 82 -4.3 24.2
07:00 1023 30.21 852 25.16 -1.6 29.2 81 -4.4 24.1
07:05 1023 30.21 852 25.16 -1.5 29.3 81 -4.3 24.2
07:10 1023 30.21 852 25.16 -1.5 29.4 81 -4.3 24.3
07:15 1023 30.21 852 25.16 -1.4 29.4 81 -4.4 24.1
07:20 1023 30.21 852 25.16 -1.4 29.5 81 -4.3 24.2
07:25 1023 30.21 852 25.16 -1.3 29.6 80 -4.4 24.1
07:30 1023 30.21 852 25.16 -1.1 30 78 -4.4 24.1
07:35 1023 30.21 852 25.16 -1 30.3 78 -4.4 24.1
07:40 1023 30.21 852 25.16 -0.9 30.4 77 -4.4 24.1
07:45 1023 30.21 852 25.16 -1 30.3 78 -4.4 24.2
07:50 1023 30.21 852 25.16 -1 30.2 78 -4.4 24
07:55 1023 30.21 852 25.16 -1 30.3 78 -4.3 24.2
08:00 1023 30.21 852 25.16 -1 30.3 78 -4.4 24.1
08:05 1023 30.21 852 25.16 -0.9 30.4 78 -4.3 24.2
08:10 1023 30.21 852 25.16 -0.8 30.6 77 -4.3 24.2
08:15 1023 30.21 852 25.16 -0.7 30.7 76 -4.5 23.9
08:20 1023 30.21 852 25.16 -0.7 30.7 75 -4.6 23.7
08:25 1022 30.18 852 25.16 -0.7 30.8 75 -4.6 23.8
08:30 1022 30.18 852 25.16 -0.5 31 74 -4.6 23.7
08:35 1022 30.18 851 25.13 -0.4 31.3 73 -4.6 23.7
08:40 1022 30.18 851 25.13 -0.3 31.4 73 -4.6 23.8
08:45 1022 30.18 851 25.13 -0.2 31.6 73 -4.5 23.9
08:50 1022 30.18 851 25.13 -0.2 31.7 73 -4.5 23.9
08:55 1022 30.18 851 25.13 -0.1 31.8 72 -4.5 23.8
09:00 1022 30.18 851 25.13 -0 31.9 72 -4.5 23.9
09:05 1022 30.18 851 25.13 0.1 32.2 71 -4.5 24
09:10 1022 30.18 851 25.13 0.2 32.3 71 -4.4 24
09:15 1022 30.18 851 25.13 0.3 32.5 72 -4.2 24.4
09:20 1022 30.18 851 25.13 0.4 32.8 72 -4.1 24.6
09:25 1022 30.18 851 25.13 0.5 32.9 72 -4 24.8
09:30 1022 30.18 851 25.13 0.5 32.9 72 -4.1 24.7
09:35 1022 30.18 851 25.13 0.5 33 72 -3.9 24.9
09:40 1022 30.18 851 25.13 0.6 33.2 73 -3.6 25.5
09:45 1022 30.18 851 25.13 0.6 33.1 75 -3.4 25.9
09:50 1022 30.18 851 25.13 0.6 33.1 75 -3.2 26.2
09:55 1022 30.18 851 25.13 0.6 33.1 78 -2.8 27
10:00 1022 30.18 851 25.13 0.6 33.1 78 -2.9 26.8
10:05 1022 30.18 851 25.13 0.7 33.2 77 -2.9 26.8
10:10 1022 30.18 851 25.13 0.8 33.5 79 -2.5 27.5
10:15 1022 30.18 851 25.13 1.1 34 78 -2.3 27.9
10:20 1021 30.15 851 25.13 1.3 34.3 78 -2.1 28.2
10:25 1021 30.15 851 25.13 1.4 34.5 76 -2.5 27.6
10:30 1021 30.15 851 25.13 1.4 34.5 76 -2.4 27.6
10:35 1021 30.15 850 25.1 1.5 34.7 75 -2.5 27.5
10:40 1021 30.15 850 25.1 1.7 35 74 -2.5 27.5
10:45 1021 30.15 850 25.1 1.6 35 74 -2.5 27.5
10:50 1021 30.15 850 25.1 1.8 35.3 73 -2.5 27.5
10:55 1021 30.15 850 25.1 2.1 35.7 71 -2.7 27.1
11:00 1021 30.15 850 25.1 2 35.6 71 -2.8 26.9
11:05 1021 30.15 850 25.1 2 35.7 71 -2.8 27
11:10 1021 30.15 850 25.1 2.3 36.2 69 -2.7 27.1
11:15 1021 30.15 850 25.1 2.3 36.2 68 -2.9 26.8
11:20 1021 30.15 850 25.1 2.1 35.8 70 -2.7 27.1
11:25 1020 30.12 850 25.1 2.3 36.2 68 -2.9 26.9
11:30 1020 30.12 850 25.1 2.3 36.2 69 -2.8 26.9
11:35 1020 30.12 849 25.07 2.5 36.5 68 -2.7 27.1
11:40 1020 30.12 849 25.07 2.6 36.6 68 -2.7 27.1
11:45 1020 30.12 849 25.07 2.7 36.8 68 -2.6 27.3
11:50 1020 30.12 849 25.07 2.7 36.9 67 -2.8 26.9
11:55 1020 30.12 849 25.07 2.8 37 67 -2.8 26.9
12:00 1020 30.12 849 25.07 2.7 36.9 67 -2.8 27
12:05 1020 30.12 849 25.07 2.6 36.7 67 -2.9 26.8
12:10 1020 30.12 849 25.07 2.7 36.9 67 -2.9 26.8
12:15 1020 30.12 849 25.07 2.9 37.3 66 -2.7 27.1
12:20 1020 30.12 849 25.07 2.9 37.2 66 -2.8 27
12:25 1020 30.12 849 25.07 2.9 37.2 67 -2.7 27.2
12:30 1020 30.12 849 25.07 3 37.4 65 -2.9 26.8
12:35 1020 30.12 849 25.07 3.1 37.6 65 -2.7 27.1
12:40 1020 30.12 849 25.07 2.8 37.1 67 -2.7 27.1
12:45 1020 30.12 849 25.07 2.6 36.7 68 -2.8 27
12:50 1020 30.12 849 25.07 2.7 36.9 67 -2.7 27.1
12:55 1020 30.12 849 25.07 2.8 37.1 67 -2.7 27.1
13:00 1020 30.12 849 25.07 2.8 37 68 -2.6 27.3
13:05 1020 30.12 849 25.07 2.8 37 67 -2.7 27.1
13:10 1019 30.09 849 25.07 2.8 37 67 -2.7 27.1
13:15 1019 30.09 849 25.07 2.8 37.1 68 -2.5 27.4
13:20 1019 30.09 848 25.04 2.9 37.3 67 -2.7 27.2
13:25 1019 30.09 848 25.04 3 37.4 66 -2.7 27.2
13:30 1019 30.09 848 25.04 3.1 37.5 66 -2.7 27.2
13:35 1019 30.09 848 25.04 3.2 37.8 67 -2.4 27.7
13:40 1019 30.09 848 25.04 3.4 38.1 66 -2.4 27.7
13:45 1019 30.09 848 25.04 3.5 38.2 66 -2.3 27.9
13:50 1019 30.09 848 25.04 3.6 38.5 66 -2.2 28.1
13:55 1019 30.09 848 25.04 3.6 38.6 66 -2 28.3
14:00 1019 30.09 848 25.04 3.8 38.8 66 -2.1 28.3
14:05 1019 30.09 848 25.04 4 39.2 66 -1.8 28.8
14:10 1019 30.09 848 25.04 4.1 39.4 65 -1.9 28.6
14:15 1019 30.09 848 25.04 4.1 39.4 67 -1.5 29.3
14:20 1019 30.09 848 25.04 4.3 39.7 65 -1.8 28.8
14:25 1018 30.06 848 25.04 4.2 39.5 68 -1.2 29.8
14:30 1018 30.06 848 25.04 4.3 39.8 72 -0.4 31.4
14:35 1018 30.06 848 25.04 4.2 39.5 72 -0.4 31.3
14:40 1018 30.06 848 25.04 4.7 40.4 69 -0.5 31.2
14:45 1018 30.06 848 25.04 5 41 68 -0.3 31.4
14:50 1018 30.06 848 25.04 4.6 40.3 72 -0 31.9
14:55 1018 30.06 848 25.04 4.3 39.7 72 -0.3 31.5
15:00 1018 30.06 848 25.04 4.6 40.3 69 -0.5 31
15:05 1018 30.06 848 25.04 4.8 40.6 70 -0.3 31.5
15:10 1018 30.06 848 25.04 4.4 39.9 72 -0.2 31.7
15:15 1018 30.06 848 25.04 4.4 39.9 72 -0.3 31.5
15:20 1018 30.06 848 25.04 4.7 40.5 74 0.4 32.8
15:25 1018 30.06 848 25.04 4.6 40.3 76 0.7 33.2
15:30 1018 30.06 847 25.01 4.1 39.3 79 0.8 33.4
15:35 1018 30.06 847 25.01 3.9 39 81 1 33.7
15:40 1018 30.06 847 25.01 4 39.3 83 1.5 34.7
15:45 1018 30.06 847 25.01 4.1 39.4 77 0.5 32.9
15:50 1018 30.06 847 25.01 4 39.3 75 -0.1 31.9
15:55 1018 30.06 847 25.01 3.8 38.9 77 0.1 32.3
16:00 1018 30.06 847 25.01 3.7 38.7 76 -0.1 31.8
16:05 1018 30.06 847 25.01 3.6 38.5 77 -0.1 31.8
16:10 1018 30.06 847 25.01 3.4 38.1 78 -0.1 31.9
16:15 1018 30.06 847 25.01 3.5 38.3 78 -0 32
16:20 1018 30.06 847 25.01 3.6 38.5 79 0.2 32.4
16:25 1018 30.06 847 25.01 3.7 38.6 77 -0 31.9
16:30 1018 30.06 847 25.01 3.6 38.5 77 0 32
16:35 1018 30.06 847 25.01 3.7 38.7 77 -0 32
16:40 1018 30.06 847 25.01 3.6 38.6 80 0.5 32.9
16:45 1017 30.03 847 25.01 3.7 38.6 78 0.2 32.3
16:50 1017 30.03 847 25.01 3.5 38.4 79 0.2 32.4
16:55 1017 30.03 847 25.01 3.4 38.2 80 0.4 32.7
17:00 1017 30.03 847 25.01 3.5 38.2 79 0.2 32.3
17:05 1017 30.03 847 25.01 3.4 38.1 80 0.2 32.4
17:10 1017 30.03 846 24.98 3.4 38.1 82 0.6 33.1
17:15 1017 30.03 846 24.98 3.4 38.1 79 0.1 32.2
17:20 1017 30.03 846 24.98 3.3 37.9 82 0.4 32.8
17:25 1017 30.03 846 24.98 3.2 37.8 82 0.5 32.8
17:30 1017 30.03 846 24.98 3.2 37.7 83 0.6 33
17:35 1017 30.03 846 24.98 3.1 37.5 82 0.3 32.6
17:40 1017 30.03 846 24.98 2.9 37.3 83 0.4 32.7
17:45 1017 30.03 846 24.98 2.8 37.1 83 0.1 32.2
17:50 1017 30.03 846 24.98 2.7 36.9 83 0.1 32.1
17:55 1017 30.03 846 24.98 2.7 36.8 83 0 32.1
18:00 1017 30.03 846 24.98 2.6 36.7 84 0.1 32.3
18:05 1017 30.03 846 24.98 2.6 36.7 82 -0.1 31.9
18:10 1017 30.03 846 24.98 2.6 36.6 82 -0.2 31.6
18:15 1017 30.03 846 24.98 2.6 36.6 82 -0.3 31.5
18:20 1017 30.03 846 24.98 2.5 36.6 81 -0.4 31.3
18:25 1017 30.03 846 24.98 2.5 36.5 82 -0.3 31.5
18:30 1017 30.03 846 24.98 2.5 36.5 81 -0.4 31.3
18:35 1017 30.03 846 24.98 2.5 36.5 82 -0.3 31.4
18:40 1017 30.03 846 24.98 2.6 36.7 83 -0 32
18:45 1017 30.03 846 24.98 2.6 36.7 84 0.2 32.3
18:50 1017 30.03 846 24.98 2.4 36.3 86 0.3 32.5
18:55 1017 30.03 846 24.98 2.3 36.1 88 0.5 32.9
19:00 1016 30 846 24.98 2.3 36.1 88 0.5 32.9
19:05 1016 30 845 24.95 2.2 36 88 0.5 32.8
19:10 1016 30 845 24.95 2.2 35.9 88 0.3 32.5
19:15 1016 30 845 24.95 2.1 35.8 87 0.1 32.2
19:20 1016 30 845 24.95 2 35.5 87 0.1 32.1
19:25 1016 30 845 24.95 1.9 35.4 88 0.1 32.3
19:30 1016 30 845 24.95 1.8 35.2 89 0.1 32.3
19:35 1016 30 845 24.95 1.8 35.2 88 0.1 32.1
19:40 1016 30 845 24.95 1.9 35.4 88 0.1 32.1
19:45 1016 30 845 24.95 2.1 35.7 87 0.1 32.1
19:50 1016 30 845 24.95 2.3 36.1 86 0.1 32.2
19:55 1016 30 845 24.95 2.6 36.6 85 0.2 32.4
20:00 1016 30 845 24.95 2.8 37 84 0.3 32.5
20:05 1016 30 845 24.95 2.9 37.2 83 0.3 32.5
20:10 1016 30 845 24.95 3 37.3 83 0.3 32.6
20:15 1016 30 845 24.95 3.1 37.5 82 0.4 32.7
20:20 1016 30 845 24.95 3.3 37.9 82 0.4 32.8
20:25 1016 30 845 24.95 3.3 38 82 0.5 32.9
20:30 1016 30 845 24.95 3.4 38.2 82 0.7 33.2
20:35 1016 30 845 24.95 3.5 38.2 83 0.8 33.4
20:40 1016 30 845 24.95 3.6 38.5 86 1.5 34.8
20:45 1016 30 845 24.95 3.4 38.1 89 1.7 35.1
20:50 1016 30 845 24.95 3 37.3 91 1.6 34.8
20:55 1016 30 845 24.95 2.7 36.9 92 1.5 34.8
21:00 1016 30 845 24.95 2.7 36.8 93 1.6 34.9
21:05 1016 30 845 24.95 2.8 37.1 92 1.6 35
21:10 1016 30 845 24.95 2.9 37.2 91 1.6 34.9
21:15 1016 30 845 24.95 3 37.3 91 1.7 35
21:20 1016 30 845 24.95 2.9 37.3 91 1.6 34.9
21:25 1016 30 845 24.95 2.8 37.1 91 1.4 34.6
21:30 1016 30 845 24.95 2.8 37.1 90 1.3 34.4
21:35 1016 30 845 24.95 2.7 36.9 90 1.2 34.2
21:40 1016 30 845 24.95 2.7 36.9 90 1.2 34.1
21:45 1016 30 845 24.95 2.7 36.9 90 1.2 34.1
21:50 1016 30 845 24.95 2.6 36.7 91 1.3 34.3
21:55 1016 30 845 24.95 2.6 36.6 91 1.3 34.3
22:00 1016 30 845 24.95 2.6 36.6 91 1.2 34.2
22:05 1016 30 845 24.95 2.7 36.9 91 1.3 34.4
22:10 1016 30 845 24.95 2.7 36.8 91 1.4 34.5
22:15 1016 30 845 24.95 2.6 36.7 92 1.5 34.6
22:20 1016 30 845 24.95 2.6 36.7 93 1.5 34.8
22:25 1016 30 845 24.95 2.6 36.7 93 1.5 34.8
22:30 1016 30 845 24.95 2.6 36.7 93 1.6 34.9
22:35 1016 30 845 24.95 2.7 36.8 93 1.7 35.1
22:40 1015 29.97 845 24.95 2.8 37 93 1.8 35.2
22:45 1015 29.97 845 24.95 2.8 37.1 93 1.8 35.3
22:50 1016 30 845 24.95 2.8 37.1 93 1.8 35.3
22:55 1016 30 845 24.95 2.8 37.1 93 1.8 35.2
23:00 1016 30 845 24.95 2.8 37.1 93 1.8 35.3
23:05 1016 30 845 24.95 2.8 37 93 1.8 35.3
23:10 1016 30 845 24.95 2.7 36.9 93 1.7 35.1
23:15 1016 30 845 24.95 2.7 36.8 93 1.7 35.1
23:20 1016 30 845 24.95 2.7 36.8 94 1.7 35.1
23:25 1016 30 846 24.98 2.6 36.7 94 1.7 35.1
23:30 1016 30 846 24.98 2.6 36.8 94 1.7 35.1
23:35 1017 30.03 846 24.98 2.7 36.8 94 1.8 35.2
23:40 1017 30.03 846 24.98 2.7 36.8 93 1.7 35.1
23:45 1017 30.03 846 24.98 2.7 36.8 94 1.7 35.1
23:50 1017 30.03 846 24.98 2.6 36.7 94 1.7 35.1
23:55 1017 30.03 846 24.98 2.5 36.5 94 1.6 35
24:00 1017 30.03 846 24.98 2.5 36.5 94 1.6 35